sensor_id;sensor_type;location;lat;lon;timestamp;pressure;altitude;pressure_sealevel;temperature;humidity
25510;BME280;13413;52.336;21.200;2023-02-20T00:00:17;100524.05;;;5.00;54.65
25510;BME280;13413;52.336;21.200;2023-02-20T00:03:14;100522.13;;;5.10;54.23
25510;BME280;13413;52.336;21.200;2023-02-20T00:09:04;100504.64;;;5.07;54.40
25510;BME280;13413;52.336;21.200;2023-02-20T00:11:58;100508.39;;;5.08;54.48
25510;BME280;13413;52.336;21.200;2023-02-20T00:14:52;100505.61;;;5.03;54.59
25510;BME280;13413;52.336;21.200;2023-02-20T00:17:46;100499.86;;;4.98;55.03
25510;BME280;13413;52.336;21.200;2023-02-20T00:20:41;100494.38;;;4.97;54.69
25510;BME280;13413;52.336;21.200;2023-02-20T00:23:35;100490.89;;;4.99;54.92
25510;BME280;13413;52.336;21.200;2023-02-20T00:26:29;100488.65;;;5.02;54.73
25510;BME280;13413;52.336;21.200;2023-02-20T00:29:24;100493.89;;;5.02;54.76
25510;BME280;13413;52.336;21.200;2023-02-20T00:32:16;100489.02;;;5.06;54.51
25510;BME280;13413;52.336;21.200;2023-02-20T00:35:09;100488.50;;;5.08;54.50
25510;BME280;13413;52.336;21.200;2023-02-20T00:45:43;100488.48;;;5.20;54.28
25510;BME280;13413;52.336;21.200;2023-02-20T00:48:36;100490.58;;;5.26;54.28
25510;BME280;13413;52.336;21.200;2023-02-20T00:51:31;100488.73;;;5.29;54.07
25510;BME280;13413;52.336;21.200;2023-02-20T00:54:24;100489.52;;;5.35;53.96
25510;BME280;13413;52.336;21.200;2023-02-20T00:57:18;100494.10;;;5.41;53.79
25510;BME280;13413;52.336;21.200;2023-02-20T01:03:25;100488.95;;;5.45;53.59
25510;BME280;13413;52.336;21.200;2023-02-20T01:06:20;100488.56;;;5.49;53.52
25510;BME280;13413;52.336;21.200;2023-02-20T01:09:13;100493.63;;;5.49;53.48
25510;BME280;13413;52.336;21.200;2023-02-20T01:12:07;100486.90;;;5.48;53.43
25510;BME280;13413;52.336;21.200;2023-02-20T01:15:01;100482.92;;;5.46;53.34
25510;BME280;13413;52.336;21.200;2023-02-20T01:17:55;100481.32;;;5.48;53.40
25510;BME280;13413;52.336;21.200;2023-02-20T01:20:49;100478.52;;;5.53;53.27
25510;BME280;13413;52.336;21.200;2023-02-20T01:23:43;100473.45;;;5.51;53.26
25510;BME280;13413;52.336;21.200;2023-02-20T01:26:37;100465.80;;;5.54;53.09
25510;BME280;13413;52.336;21.200;2023-02-20T01:29:33;100462.45;;;5.53;53.24
25510;BME280;13413;52.336;21.200;2023-02-20T01:32:27;100458.78;;;5.58;53.12
25510;BME280;13413;52.336;21.200;2023-02-20T01:35:21;100459.27;;;5.59;53.01
25510;BME280;13413;52.336;21.200;2023-02-20T01:38:15;100464.86;;;5.59;52.93
25510;BME280;13413;52.336;21.200;2023-02-20T01:41:10;100466.84;;;5.58;53.03
25510;BME280;13413;52.336;21.200;2023-02-20T01:44:05;100468.89;;;5.63;52.95
25510;BME280;13413;52.336;21.200;2023-02-20T01:46:59;100466.14;;;5.64;52.88
25510;BME280;13413;52.336;21.200;2023-02-20T01:49:57;100463.27;;;5.69;52.89
25510;BME280;13413;52.336;21.200;2023-02-20T01:52:55;100465.52;;;5.69;52.91
25510;BME280;13413;52.336;21.200;2023-02-20T01:55:52;100463.67;;;5.72;52.90
25510;BME280;13413;52.336;21.200;2023-02-20T01:58:50;100458.06;;;5.66;52.82
25510;BME280;13413;52.336;21.200;2023-02-20T02:01:45;100450.46;;;5.65;52.93
25510;BME280;13413;52.336;21.200;2023-02-20T02:04:39;100449.99;;;5.65;52.90
25510;BME280;13413;52.336;21.200;2023-02-20T02:07:33;100453.18;;;5.62;52.95
25510;BME280;13413;52.336;21.200;2023-02-20T02:10:31;100462.88;;;5.62;52.97
25510;BME280;13413;52.336;21.200;2023-02-20T02:13:29;100451.77;;;5.60;53.05
25510;BME280;13413;52.336;21.200;2023-02-20T02:16:31;100444.29;;;5.61;52.95
25510;BME280;13413;52.336;21.200;2023-02-20T02:20:09;100443.54;;;5.64;53.18
25510;BME280;13413;52.336;21.200;2023-02-20T02:23:26;100450.02;;;5.64;53.15
25510;BME280;13413;52.336;21.200;2023-02-20T02:30:33;100446.58;;;5.67;53.02
25510;BME280;13413;52.336;21.200;2023-02-20T02:34:11;100448.48;;;5.71;53.03
25510;BME280;13413;52.336;21.200;2023-02-20T02:37:16;100447.05;;;5.75;53.02
25510;BME280;13413;52.336;21.200;2023-02-20T02:40:15;100446.81;;;5.70;53.15
25510;BME280;13413;52.336;21.200;2023-02-20T02:43:17;100444.73;;;5.72;53.12
25510;BME280;13413;52.336;21.200;2023-02-20T02:46:24;100445.05;;;5.70;53.19
25510;BME280;13413;52.336;21.200;2023-02-20T02:49:26;100436.16;;;5.77;53.02
25510;BME280;13413;52.336;21.200;2023-02-20T02:52:24;100437.48;;;5.76;53.05
25510;BME280;13413;52.336;21.200;2023-02-20T02:55:21;100446.23;;;5.82;53.10
25510;BME280;13413;52.336;21.200;2023-02-20T02:58:14;100444.15;;;5.93;53.01
25510;BME280;13413;52.336;21.200;2023-02-20T03:07:14;100436.92;;;6.01;53.00
25510;BME280;13413;52.336;21.200;2023-02-20T03:10:10;100437.31;;;5.95;52.82
25510;BME280;13413;52.336;21.200;2023-02-20T03:13:07;100439.97;;;6.02;52.91
25510;BME280;13413;52.336;21.200;2023-02-20T03:16:01;100441.85;;;6.10;52.74
25510;BME280;13413;52.336;21.200;2023-02-20T03:18:56;100442.66;;;6.13;52.73
25510;BME280;13413;52.336;21.200;2023-02-20T03:21:54;100444.98;;;6.14;52.59
25510;BME280;13413;52.336;21.200;2023-02-20T03:24:53;100439.30;;;6.09;52.78
25510;BME280;13413;52.336;21.200;2023-02-20T03:27:52;100437.02;;;6.15;52.67
25510;BME280;13413;52.336;21.200;2023-02-20T03:30:50;100437.50;;;6.17;52.57
25510;BME280;13413;52.336;21.200;2023-02-20T03:33:49;100435.53;;;6.12;52.47
25510;BME280;13413;52.336;21.200;2023-02-20T03:36:48;100432.70;;;6.14;52.51
25510;BME280;13413;52.336;21.200;2023-02-20T03:39:46;100440.29;;;6.16;52.49
25510;BME280;13413;52.336;21.200;2023-02-20T03:42:43;100435.63;;;6.11;52.46
25510;BME280;13413;52.336;21.200;2023-02-20T03:45:40;100440.55;;;6.09;52.54
25510;BME280;13413;52.336;21.200;2023-02-20T03:48:39;100440.28;;;6.08;52.55
25510;BME280;13413;52.336;21.200;2023-02-20T03:51:34;100440.42;;;6.12;52.53
25510;BME280;13413;52.336;21.200;2023-02-20T03:54:29;100440.46;;;6.06;52.57
25510;BME280;13413;52.336;21.200;2023-02-20T03:57:27;100434.89;;;6.04;52.59
25510;BME280;13413;52.336;21.200;2023-02-20T04:00:26;100431.61;;;6.05;52.59
25510;BME280;13413;52.336;21.200;2023-02-20T04:03:24;100428.20;;;6.00;52.69
25510;BME280;13413;52.336;21.200;2023-02-20T04:06:21;100429.79;;;5.96;52.61
25510;BME280;13413;52.336;21.200;2023-02-20T04:09:21;100435.55;;;5.95;52.80
25510;BME280;13413;52.336;21.200;2023-02-20T04:12:21;100432.58;;;5.85;52.98
25510;BME280;13413;52.336;21.200;2023-02-20T04:15:18;100430.95;;;5.78;53.09
25510;BME280;13413;52.336;21.200;2023-02-20T04:18:15;100432.55;;;5.73;53.27
25510;BME280;13413;52.336;21.200;2023-02-20T04:21:15;100428.38;;;5.78;53.07
25510;BME280;13413;52.336;21.200;2023-02-20T04:24:14;100423.98;;;5.74;53.27
25510;BME280;13413;52.336;21.200;2023-02-20T04:27:11;100418.20;;;5.72;53.33
25510;BME280;13413;52.336;21.200;2023-02-20T04:30:07;100422.20;;;5.69;53.34
25510;BME280;13413;52.336;21.200;2023-02-20T04:33:01;100420.60;;;5.66;53.49
25510;BME280;13413;52.336;21.200;2023-02-20T04:35:55;100420.22;;;5.62;53.60
25510;BME280;13413;52.336;21.200;2023-02-20T04:38:50;100415.60;;;5.63;53.49
25510;BME280;13413;52.336;21.200;2023-02-20T04:41:43;100409.77;;;5.55;53.66
25510;BME280;13413;52.336;21.200;2023-02-20T04:44:37;100405.60;;;5.53;53.79
25510;BME280;13413;52.336;21.200;2023-02-20T04:47:31;100401.47;;;5.52;53.87
25510;BME280;13413;52.336;21.200;2023-02-20T04:50:27;100395.26;;;5.51;53.84
25510;BME280;13413;52.336;21.200;2023-02-20T04:53:21;100393.86;;;5.51;53.80
25510;BME280;13413;52.336;21.200;2023-02-20T04:56:15;100394.09;;;5.45;53.86
25510;BME280;13413;52.336;21.200;2023-02-20T04:59:09;100390.71;;;5.42;54.17
25510;BME280;13413;52.336;21.200;2023-02-20T05:02:07;100387.42;;;5.39;54.20
25510;BME280;13413;52.336;21.200;2023-02-20T05:05:00;100392.27;;;5.33;54.29
25510;BME280;13413;52.336;21.200;2023-02-20T05:07:57;100386.92;;;5.39;54.23
25510;BME280;13413;52.336;21.200;2023-02-20T05:10:52;100389.81;;;5.42;54.22
25510;BME280;13413;52.336;21.200;2023-02-20T05:13:45;100379.73;;;5.39;54.22
25510;BME280;13413;52.336;21.200;2023-02-20T05:16:41;100380.10;;;5.39;54.37
25510;BME280;13413;52.336;21.200;2023-02-20T05:19:33;100380.70;;;5.34;54.51
25510;BME280;13413;52.336;21.200;2023-02-20T05:27:56;100370.96;;;5.45;54.52
25510;BME280;13413;52.336;21.200;2023-02-20T05:30:50;100375.40;;;5.42;54.57
25510;BME280;13413;52.336;21.200;2023-02-20T05:33:44;100375.31;;;5.43;54.51
25510;BME280;13413;52.336;21.200;2023-02-20T05:36:38;100377.98;;;5.45;54.60
25510;BME280;13413;52.336;21.200;2023-02-20T05:39:32;100379.55;;;5.47;54.69
25510;BME280;13413;52.336;21.200;2023-02-20T05:42:26;100380.93;;;5.47;54.65
25510;BME280;13413;52.336;21.200;2023-02-20T05:45:20;100370.66;;;5.46;54.83
25510;BME280;13413;52.336;21.200;2023-02-20T05:48:15;100364.06;;;5.49;54.76
25510;BME280;13413;52.336;21.200;2023-02-20T05:51:17;100362.74;;;5.48;54.91
25510;BME280;13413;52.336;21.200;2023-02-20T05:54:14;100354.36;;;5.49;55.05
25510;BME280;13413;52.336;21.200;2023-02-20T05:57:10;100349.48;;;5.50;55.12
25510;BME280;13413;52.336;21.200;2023-02-20T06:00:24;100344.88;;;5.48;55.08
25510;BME280;13413;52.336;21.200;2023-02-20T06:03:18;100342.80;;;5.55;55.17
25510;BME280;13413;52.336;21.200;2023-02-20T06:06:16;100343.34;;;5.55;55.29
25510;BME280;13413;52.336;21.200;2023-02-20T06:09:11;100348.05;;;5.61;55.38
25510;BME280;13413;52.336;21.200;2023-02-20T06:12:06;100347.86;;;5.59;55.52
25510;BME280;13413;52.336;21.200;2023-02-20T06:14:59;100339.92;;;5.63;55.46
25510;BME280;13413;52.336;21.200;2023-02-20T06:17:52;100341.02;;;5.67;55.50
25510;BME280;13413;52.336;21.200;2023-02-20T06:20:47;100337.23;;;5.70;55.48
25510;BME280;13413;52.336;21.200;2023-02-20T06:23:43;100327.27;;;5.77;55.52
25510;BME280;13413;52.336;21.200;2023-02-20T06:26:41;100326.84;;;5.79;55.50
25510;BME280;13413;52.336;21.200;2023-02-20T06:29:35;100333.26;;;5.82;55.55
25510;BME280;13413;52.336;21.200;2023-02-20T06:32:29;100325.09;;;5.87;55.50
25510;BME280;13413;52.336;21.200;2023-02-20T06:35:23;100324.65;;;5.89;55.48
25510;BME280;13413;52.336;21.200;2023-02-20T06:38:20;100322.77;;;5.96;55.52
25510;BME280;13413;52.336;21.200;2023-02-20T06:41:14;100319.05;;;5.93;55.58
25510;BME280;13413;52.336;21.200;2023-02-20T06:44:08;100313.10;;;5.89;55.68
25510;BME280;13413;52.336;21.200;2023-02-20T06:47:03;100309.30;;;5.98;55.60
25510;BME280;13413;52.336;21.200;2023-02-20T06:49:56;100305.55;;;6.02;55.50
25510;BME280;13413;52.336;21.200;2023-02-20T06:52:50;100304.79;;;6.06;55.46
25510;BME280;13413;52.336;21.200;2023-02-20T06:55:44;100296.59;;;6.09;55.38
25510;BME280;13413;52.336;21.200;2023-02-20T06:58:38;100300.05;;;6.13;55.41
25510;BME280;13413;52.336;21.200;2023-02-20T07:01:39;100299.73;;;6.17;55.43
25510;BME280;13413;52.336;21.200;2023-02-20T07:04:33;100293.31;;;6.16;55.32
25510;BME280;13413;52.336;21.200;2023-02-20T07:07:27;100301.43;;;6.19;55.45
25510;BME280;13413;52.336;21.200;2023-02-20T07:10:21;100306.04;;;6.27;55.32
25510;BME280;13413;52.336;21.200;2023-02-20T07:13:15;100292.75;;;6.29;55.33
25510;BME280;13413;52.336;21.200;2023-02-20T07:16:09;100285.58;;;6.37;55.36
25510;BME280;13413;52.336;21.200;2023-02-20T07:19:03;100283.45;;;6.41;55.37
25510;BME280;13413;52.336;21.200;2023-02-20T07:21:57;100281.07;;;6.47;55.20
25510;BME280;13413;52.336;21.200;2023-02-20T07:24:53;100275.02;;;6.51;55.23
25510;BME280;13413;52.336;21.200;2023-02-20T07:27:47;100274.58;;;6.54;55.27
25510;BME280;13413;52.336;21.200;2023-02-20T07:30:41;100276.77;;;6.59;55.31
25510;BME280;13413;52.336;21.200;2023-02-20T07:33:35;100280.42;;;6.64;55.31
25510;BME280;13413;52.336;21.200;2023-02-20T07:36:29;100279.52;;;6.68;55.20
25510;BME280;13413;52.336;21.200;2023-02-20T07:39:22;100275.69;;;6.68;55.23
25510;BME280;13413;52.336;21.200;2023-02-20T07:47:48;100274.63;;;6.85;55.12
25510;BME280;13413;52.336;21.200;2023-02-20T07:50:42;100269.08;;;6.90;55.05
25510;BME280;13413;52.336;21.200;2023-02-20T07:53:36;100249.91;;;6.88;55.13
25510;BME280;13413;52.336;21.200;2023-02-20T07:56:31;100240.12;;;6.94;55.04
25510;BME280;13413;52.336;21.200;2023-02-20T07:59:26;100228.71;;;6.94;55.08
25510;BME280;13413;52.336;21.200;2023-02-20T08:02:20;100219.07;;;6.89;55.21
25510;BME280;13413;52.336;21.200;2023-02-20T08:05:15;100215.40;;;6.94;55.31
25510;BME280;13413;52.336;21.200;2023-02-20T08:08:09;100214.96;;;7.03;55.21
25510;BME280;13413;52.336;21.200;2023-02-20T08:11:02;100207.20;;;7.05;55.27
25510;BME280;13413;52.336;21.200;2023-02-20T08:13:58;100199.09;;;7.00;55.40
25510;BME280;13413;52.336;21.200;2023-02-20T08:16:51;100199.06;;;7.08;55.46
25510;BME280;13413;52.336;21.200;2023-02-20T08:19:46;100193.61;;;7.12;55.46
25510;BME280;13413;52.336;21.200;2023-02-20T08:22:39;100183.27;;;7.12;55.40
25510;BME280;13413;52.336;21.200;2023-02-20T08:25:33;100184.70;;;7.09;55.55
25510;BME280;13413;52.336;21.200;2023-02-20T08:28:28;100186.47;;;7.20;55.54
25510;BME280;13413;52.336;21.200;2023-02-20T08:31:22;100181.36;;;7.20;55.53
25510;BME280;13413;52.336;21.200;2023-02-20T08:34:16;100176.56;;;7.24;55.49
25510;BME280;13413;52.336;21.200;2023-02-20T08:37:09;100175.69;;;7.29;55.54
25510;BME280;13413;52.336;21.200;2023-02-20T08:40:04;100166.09;;;7.27;55.71
25510;BME280;13413;52.336;21.200;2023-02-20T08:42:57;100150.03;;;7.17;56.04
25510;BME280;13413;52.336;21.200;2023-02-20T08:45:52;100147.84;;;7.25;56.06
25510;BME280;13413;52.336;21.200;2023-02-20T08:48:46;100141.41;;;7.26;56.31
25510;BME280;13413;52.336;21.200;2023-02-20T08:51:40;100140.29;;;7.23;56.61
25510;BME280;13413;52.336;21.200;2023-02-20T08:54:34;100142.33;;;7.22;56.80
25510;BME280;13413;52.336;21.200;2023-02-20T08:57:27;100137.41;;;7.12;57.30
25510;BME280;13413;52.336;21.200;2023-02-20T09:00:22;100127.88;;;7.06;57.50
25510;BME280;13413;52.336;21.200;2023-02-20T09:03:16;100119.51;;;7.10;57.68
25510;BME280;13413;52.336;21.200;2023-02-20T09:06:10;100102.66;;;7.13;57.86
25510;BME280;13413;52.336;21.200;2023-02-20T09:09:04;100085.79;;;7.13;58.10
25510;BME280;13413;52.336;21.200;2023-02-20T09:11:58;100071.24;;;7.02;58.62
25510;BME280;13413;52.336;21.200;2023-02-20T09:14:52;100062.43;;;6.89;59.24
25510;BME280;13413;52.336;21.200;2023-02-20T09:17:49;100049.22;;;6.80;59.50
25510;BME280;13413;52.336;21.200;2023-02-20T09:20:43;100040.49;;;6.69;59.89
25510;BME280;13413;52.336;21.200;2023-02-20T09:23:38;100043.05;;;6.65;60.35
25510;BME280;13413;52.336;21.200;2023-02-20T09:26:31;100038.15;;;6.58;60.48
25510;BME280;13413;52.336;21.200;2023-02-20T09:29:25;100034.42;;;6.57;60.74
25510;BME280;13413;52.336;21.200;2023-02-20T09:32:19;100028.83;;;6.46;61.32
25510;BME280;13413;52.336;21.200;2023-02-20T09:35:17;100014.67;;;6.45;61.53
25510;BME280;13413;52.336;21.200;2023-02-20T09:38:13;100001.44;;;6.34;62.02
25510;BME280;13413;52.336;21.200;2023-02-20T09:41:14;99986.22;;;6.23;62.10
25510;BME280;13413;52.336;21.200;2023-02-20T09:44:17;99977.11;;;6.10;62.98
25510;BME280;13413;52.336;21.200;2023-02-20T09:47:28;99972.08;;;6.02;63.21
25510;BME280;13413;52.336;21.200;2023-02-20T09:50:32;99954.95;;;5.94;63.68
25510;BME280;13413;52.336;21.200;2023-02-20T09:53:30;99936.89;;;6.01;63.55
25510;BME280;13413;52.336;21.200;2023-02-20T09:56:27;99924.52;;;5.96;64.08
25510;BME280;13413;52.336;21.200;2023-02-20T09:59:21;99914.05;;;6.00;64.03
25510;BME280;13413;52.336;21.200;2023-02-20T10:07:49;99885.71;;;6.05;64.55
25510;BME280;13413;52.336;21.200;2023-02-20T10:10:44;99885.93;;;6.12;64.30
25510;BME280;13413;52.336;21.200;2023-02-20T10:13:51;99874.45;;;6.04;65.07
25510;BME280;13413;52.336;21.200;2023-02-20T10:16:55;99863.09;;;6.02;65.03
25510;BME280;13413;52.336;21.200;2023-02-20T10:23:00;99841.11;;;6.06;65.21
25510;BME280;13413;52.336;21.200;2023-02-20T10:26:00;99835.67;;;6.19;64.60
25510;BME280;13413;52.336;21.200;2023-02-20T10:28:58;99827.40;;;6.18;64.79
25510;BME280;13413;52.336;21.200;2023-02-20T10:31:59;99821.50;;;6.17;64.93
25510;BME280;13413;52.336;21.200;2023-02-20T10:34:58;99821.08;;;6.04;65.55
25510;BME280;13413;52.336;21.200;2023-02-20T10:38:01;99811.20;;;6.13;65.47
25510;BME280;13413;52.336;21.200;2023-02-20T10:40:59;99802.27;;;6.11;65.81
25510;BME280;13413;52.336;21.200;2023-02-20T10:49:59;99795.77;;;6.25;65.82
25510;BME280;13413;52.336;21.200;2023-02-20T10:52:58;99789.42;;;6.20;66.08
25510;BME280;13413;52.336;21.200;2023-02-20T10:55:57;99775.65;;;6.27;66.02
25510;BME280;13413;52.336;21.200;2023-02-20T10:58:58;99767.85;;;6.34;65.84
25510;BME280;13413;52.336;21.200;2023-02-20T11:01:57;99758.56;;;6.34;66.06
25510;BME280;13413;52.336;21.200;2023-02-20T11:04:56;99745.40;;;6.36;66.10
25510;BME280;13413;52.336;21.200;2023-02-20T11:07:53;99736.48;;;6.37;66.10
25510;BME280;13413;52.336;21.200;2023-02-20T11:10:47;99730.69;;;6.26;66.31
25510;BME280;13413;52.336;21.200;2023-02-20T11:13:41;99725.28;;;6.29;66.20
25510;BME280;13413;52.336;21.200;2023-02-20T11:16:37;99722.32;;;6.27;66.31
25510;BME280;13413;52.336;21.200;2023-02-20T11:19:39;99700.38;;;6.12;66.85
25510;BME280;13413;52.336;21.200;2023-02-20T11:22:43;99682.14;;;6.05;66.88
25510;BME280;13413;52.336;21.200;2023-02-20T11:25:38;99665.49;;;6.13;66.64
25510;BME280;13413;52.336;21.200;2023-02-20T11:28:32;99608.18;;;6.10;66.64
25510;BME280;13413;52.336;21.200;2023-02-20T11:31:26;99569.86;;;5.97;67.11
25510;BME280;13413;52.336;21.200;2023-02-20T11:34:20;99578.27;;;6.03;67.09
25510;BME280;13413;52.336;21.200;2023-02-20T11:37:15;99585.08;;;6.15;66.90
25510;BME280;13413;52.336;21.200;2023-02-20T11:40:19;99562.45;;;6.12;67.17
25510;BME280;13413;52.336;21.200;2023-02-20T11:43:20;99547.41;;;6.14;67.25
25510;BME280;13413;52.336;21.200;2023-02-20T11:46:18;99552.84;;;6.23;67.25
25510;BME280;13413;52.336;21.200;2023-02-20T11:49:23;99534.80;;;6.27;67.31
25510;BME280;13413;52.336;21.200;2023-02-20T11:52:19;99508.88;;;6.30;67.55
25510;BME280;13413;52.336;21.200;2023-02-20T11:55:20;99491.79;;;6.32;67.50
25510;BME280;13413;52.336;21.200;2023-02-20T11:58:23;99491.13;;;6.39;67.53
25510;BME280;13413;52.336;21.200;2023-02-20T12:01:31;99481.91;;;6.40;67.81
25510;BME280;13413;52.336;21.200;2023-02-20T12:04:25;99468.81;;;6.50;67.80
25510;BME280;13413;52.336;21.200;2023-02-20T12:07:27;99450.14;;;6.51;67.97
25510;BME280;13413;52.336;21.200;2023-02-20T12:10:28;99432.54;;;6.65;67.72
25510;BME280;13413;52.336;21.200;2023-02-20T12:13:23;99412.45;;;6.72;67.70
25510;BME280;13413;52.336;21.200;2023-02-20T12:16:41;99398.09;;;6.82;67.69
25510;BME280;13413;52.336;21.200;2023-02-20T12:19:40;99402.20;;;6.89;67.67
25510;BME280;13413;52.336;21.200;2023-02-20T12:26:16;99397.02;;;7.13;67.60
25510;BME280;13413;52.336;21.200;2023-02-20T12:29:24;99385.78;;;7.15;67.73
25510;BME280;13413;52.336;21.200;2023-02-20T12:32:28;99364.54;;;7.18;67.77
25510;BME280;13413;52.336;21.200;2023-02-20T12:35:31;99369.95;;;7.35;67.53
25510;BME280;13413;52.336;21.200;2023-02-20T12:38:37;99363.42;;;7.35;67.63
25510;BME280;13413;52.336;21.200;2023-02-20T12:41:41;99370.13;;;7.49;67.56
25510;BME280;13413;52.336;21.200;2023-02-20T12:45:09;99384.88;;;7.58;67.51
25510;BME280;13413;52.336;21.200;2023-02-20T12:48:23;99395.44;;;7.63;67.28
25510;BME280;13413;52.336;21.200;2023-02-20T12:51:27;99401.20;;;7.61;67.64
25510;BME280;13413;52.336;21.200;2023-02-20T12:54:38;99386.41;;;7.65;67.58
25510;BME280;13413;52.336;21.200;2023-02-20T12:57:43;99378.31;;;7.83;67.39
25510;BME280;13413;52.336;21.200;2023-02-20T13:00:42;99373.23;;;7.88;67.17
25510;BME280;13413;52.336;21.200;2023-02-20T13:03:45;99377.77;;;7.90;67.20
25510;BME280;13413;52.336;21.200;2023-02-20T13:06:45;99368.88;;;7.94;67.28
25510;BME280;13413;52.336;21.200;2023-02-20T13:09:45;99372.11;;;7.96;67.25
25510;BME280;13413;52.336;21.200;2023-02-20T13:12:44;99377.39;;;7.94;67.61
25510;BME280;13413;52.336;21.200;2023-02-20T13:15:42;99371.38;;;8.07;67.40
25510;BME280;13413;52.336;21.200;2023-02-20T13:18:46;99367.46;;;8.22;67.13
25510;BME280;13413;52.336;21.200;2023-02-20T13:21:41;99367.71;;;8.34;66.93
25510;BME280;13413;52.336;21.200;2023-02-20T13:24:36;99357.92;;;8.41;66.81
25510;BME280;13413;52.336;21.200;2023-02-20T13:27:33;99343.11;;;8.40;67.19
25510;BME280;13413;52.336;21.200;2023-02-20T13:30:27;99336.84;;;8.51;66.95
25510;BME280;13413;52.336;21.200;2023-02-20T13:33:24;99326.45;;;8.55;67.07
25510;BME280;13413;52.336;21.200;2023-02-20T13:36:40;99327.11;;;8.69;66.88
25510;BME280;13413;52.336;21.200;2023-02-20T13:39:43;99319.48;;;8.93;66.41
25510;BME280;13413;52.336;21.200;2023-02-20T13:42:37;99307.09;;;8.99;66.19
25510;BME280;13413;52.336;21.200;2023-02-20T13:45:39;99307.38;;;9.10;66.00
25510;BME280;13413;52.336;21.200;2023-02-20T13:48:44;99298.16;;;9.18;65.74
25510;BME280;13413;52.336;21.200;2023-02-20T13:51:39;99289.15;;;9.21;65.56
25510;BME280;13413;52.336;21.200;2023-02-20T13:54:34;99288.41;;;9.26;65.53
25510;BME280;13413;52.336;21.200;2023-02-20T13:57:30;99294.88;;;9.31;65.39
25510;BME280;13413;52.336;21.200;2023-02-20T14:00:28;99290.64;;;9.37;65.28
25510;BME280;13413;52.336;21.200;2023-02-20T14:03:29;99295.95;;;9.52;65.02
25510;BME280;13413;52.336;21.200;2023-02-20T14:06:23;99287.97;;;9.52;64.95
25510;BME280;13413;52.336;21.200;2023-02-20T14:09:20;99285.58;;;9.54;64.98
25510;BME280;13413;52.336;21.200;2023-02-20T14:12:15;99283.11;;;9.58;64.74
25510;BME280;13413;52.336;21.200;2023-02-20T14:15:09;99281.70;;;9.58;64.92
25510;BME280;13413;52.336;21.200;2023-02-20T14:18:03;99263.69;;;9.63;64.75
25510;BME280;13413;52.336;21.200;2023-02-20T14:21:20;99271.18;;;9.64;64.72
25510;BME280;13413;52.336;21.200;2023-02-20T14:24:20;99265.23;;;9.64;64.99
25510;BME280;13413;52.336;21.200;2023-02-20T14:27:27;99256.94;;;9.75;64.64
25510;BME280;13413;52.336;21.200;2023-02-20T14:30:23;99249.67;;;9.74;64.81
25510;BME280;13413;52.336;21.200;2023-02-20T14:33:20;99247.16;;;9.86;64.50
25510;BME280;13413;52.336;21.200;2023-02-20T14:36:31;99240.80;;;9.86;64.40
25510;BME280;13413;52.336;21.200;2023-02-20T14:39:35;99214.80;;;9.88;64.45
25510;BME280;13413;52.336;21.200;2023-02-20T14:47:55;99193.14;;;10.04;64.30
25510;BME280;13413;52.336;21.200;2023-02-20T14:50:48;99193.23;;;10.15;63.93
25510;BME280;13413;52.336;21.200;2023-02-20T14:54:19;99197.75;;;10.14;63.71
25510;BME280;13413;52.336;21.200;2023-02-20T14:57:13;99205.07;;;10.20;63.69
25510;BME280;13413;52.336;21.200;2023-02-20T15:00:24;99186.86;;;10.29;63.47
25510;BME280;13413;52.336;21.200;2023-02-20T15:03:25;99173.09;;;10.33;63.28
25510;BME280;13413;52.336;21.200;2023-02-20T15:06:18;99158.32;;;10.32;63.17
25510;BME280;13413;52.336;21.200;2023-02-20T15:09:12;99159.46;;;10.37;63.28
25510;BME280;13413;52.336;21.200;2023-02-20T15:12:06;99152.37;;;10.37;63.08
25510;BME280;13413;52.336;21.200;2023-02-20T15:15:02;99150.66;;;10.40;63.02
25510;BME280;13413;52.336;21.200;2023-02-20T15:18:07;99140.91;;;10.50;62.81
25510;BME280;13413;52.336;21.200;2023-02-20T15:21:01;99148.09;;;10.53;62.87
25510;BME280;13413;52.336;21.200;2023-02-20T15:23:53;99149.69;;;10.53;62.57
25510;BME280;13413;52.336;21.200;2023-02-20T15:26:46;99142.95;;;10.55;62.66
25510;BME280;13413;52.336;21.200;2023-02-20T15:29:40;99134.01;;;10.54;62.33
25510;BME280;13413;52.336;21.200;2023-02-20T15:32:32;99131.69;;;10.65;62.19
25510;BME280;13413;52.336;21.200;2023-02-20T15:35:27;99130.01;;;10.68;62.11
25510;BME280;13413;52.336;21.200;2023-02-20T15:38:20;99135.20;;;10.67;62.11
25510;BME280;13413;52.336;21.200;2023-02-20T15:41:14;99146.58;;;10.69;62.03
25510;BME280;13413;52.336;21.200;2023-02-20T15:44:06;99148.77;;;10.74;61.90
25510;BME280;13413;52.336;21.200;2023-02-20T15:46:59;99153.66;;;10.75;61.88
25510;BME280;13413;52.336;21.200;2023-02-20T15:49:51;99143.59;;;10.73;61.81
25510;BME280;13413;52.336;21.200;2023-02-20T15:52:45;99142.48;;;10.79;61.65
25510;BME280;13413;52.336;21.200;2023-02-20T15:55:39;99131.45;;;10.84;61.55
25510;BME280;13413;52.336;21.200;2023-02-20T15:58:35;99110.90;;;10.78;61.53
25510;BME280;13413;52.336;21.200;2023-02-20T16:01:28;99117.02;;;10.91;61.55
25510;BME280;13413;52.336;21.200;2023-02-20T16:04:20;99101.85;;;10.91;61.33
25510;BME280;13413;52.336;21.200;2023-02-20T16:07:12;99107.17;;;10.83;61.29
25510;BME280;13413;52.336;21.200;2023-02-20T16:10:06;99097.66;;;10.84;61.28
25510;BME280;13413;52.336;21.200;2023-02-20T16:13:20;99098.34;;;10.91;61.24
25510;BME280;13413;52.336;21.200;2023-02-20T16:16:18;99102.14;;;11.03;61.06
25510;BME280;13413;52.336;21.200;2023-02-20T16:19:14;99105.44;;;11.05;60.73
25510;BME280;13413;52.336;21.200;2023-02-20T16:22:08;99105.70;;;11.00;60.77
25510;BME280;13413;52.336;21.200;2023-02-20T16:25:05;99106.16;;;11.09;60.69
25510;BME280;13413;52.336;21.200;2023-02-20T16:27:57;99090.73;;;11.13;60.28